createdAt,value
2023-04-10T00:01:03.412Z,33.62
2023-04-10T00:03:07.248Z,34.20
2023-04-10T00:05:10.712Z,33.85
2023-04-10T00:07:14.478Z,33.83
2023-04-10T00:09:17.422Z,34.19
2023-04-10T00:11:20.204Z,34.09
2023-04-10T00:13:23.512Z,34.18
2023-04-10T00:15:26.127Z,34.00
2023-04-10T00:17:28.812Z,33.98
2023-04-10T00:19:31.738Z,33.92
2023-04-10T00:21:34.360Z,33.95
2023-04-10T00:23:37.710Z,33.74
2023-04-10T00:25:40.340Z,33.82
2023-04-10T00:27:43.022Z,33.80
2023-04-10T00:29:45.659Z,33.71
2023-04-10T00:31:48.283Z,34.06
2023-04-10T00:33:50.956Z,34.18
2023-04-10T00:35:53.597Z,34.54
2023-04-10T00:37:57.025Z,33.85
2023-04-10T00:39:59.952Z,34.28
2023-04-10T00:42:02.595Z,34.38
2023-04-10T00:44:05.228Z,34.49
2023-04-10T00:46:09.033Z,34.37
2023-04-10T00:48:12.126Z,35.00
2023-04-10T00:50:14.835Z,34.25
2023-04-10T00:52:18.000Z,35.08
2023-04-10T00:54:21.169Z,35.07
2023-04-10T00:56:24.528Z,34.68
2023-04-10T00:58:27.141Z,34.88
2023-04-10T01:00:29.728Z,35.43
2023-04-10T01:02:32.492Z,35.51
2023-04-10T01:04:35.636Z,35.55
2023-04-10T01:07:00.800Z,36.31
2023-04-10T01:09:20.961Z,36.28
2023-04-10T01:11:52.578Z,36.44
2023-04-10T01:14:19.735Z,37.38
2023-04-10T01:16:31.266Z,36.74
2023-04-10T01:18:50.046Z,37.33
2023-04-10T01:20:53.280Z,37.25
2023-04-10T01:23:24.159Z,37.67
2023-04-10T01:25:35.230Z,37.47
2023-04-10T01:27:37.715Z,37.25
2023-04-10T01:29:47.290Z,37.66
2023-04-10T01:31:58.475Z,37.54
2023-04-10T01:34:07.540Z,37.80
2023-04-10T01:36:18.842Z,38.39
2023-04-10T01:38:27.322Z,37.58
2023-04-10T01:40:31.971Z,37.87
2023-04-10T01:42:45.636Z,37.97
2023-04-10T01:44:50.615Z,38.67
2023-04-10T01:46:54.494Z,38.33
2023-04-10T01:49:00.844Z,38.77
2023-04-10T01:51:06.789Z,39.28
2023-04-10T01:53:10.394Z,38.99
2023-04-10T01:55:13.769Z,39.03
2023-04-10T01:57:17.449Z,39.41
2023-04-10T01:59:20.761Z,39.12
2023-04-10T02:01:29.741Z,39.06
2023-04-10T02:03:33.386Z,39.18
2023-04-10T02:05:55.137Z,39.98
2023-04-10T02:08:15.791Z,39.88
2023-04-10T02:10:54.677Z,39.61
2023-04-10T02:13:08.134Z,39.89
2023-04-10T02:15:12.843Z,40.05
2023-04-10T02:17:21.059Z,40.34
2023-04-10T02:19:27.199Z,40.42
2023-04-10T02:21:30.015Z,40.55
2023-04-10T02:23:32.607Z,40.05
2023-04-10T02:25:36.228Z,40.72
2023-04-10T02:27:40.813Z,40.89
2023-04-10T02:29:43.443Z,40.97
2023-04-10T02:31:46.911Z,40.68
2023-04-10T02:33:49.672Z,40.46
2023-04-10T02:35:52.346Z,40.13
2023-04-10T02:37:55.706Z,40.61
2023-04-10T02:39:58.364Z,40.32
2023-04-10T02:42:01.462Z,40.95
2023-04-10T02:44:04.311Z,40.42
2023-04-10T02:46:07.252Z,40.88
2023-04-10T02:48:11.250Z,40.96
2023-04-10T02:50:14.025Z,40.90
2023-04-10T02:52:17.585Z,40.54
2023-04-10T02:54:20.189Z,40.48
2023-04-10T02:56:22.930Z,40.62
2023-04-10T02:58:25.594Z,40.40
2023-04-10T03:00:28.212Z,40.27
2023-04-10T03:02:31.391Z,40.08
2023-04-10T03:04:34.271Z,39.23
2023-04-10T03:06:37.157Z,39.65
2023-04-10T03:08:39.781Z,39.28
2023-04-10T03:10:45.518Z,39.07
2023-04-10T03:12:48.970Z,39.25
2023-04-10T03:14:51.658Z,38.95
2023-04-10T03:16:54.387Z,39.21
2023-04-10T03:18:57.317Z,39.66
2023-04-10T03:21:00.158Z,39.23
2023-04-10T03:23:04.217Z,39.57
2023-04-10T03:25:07.404Z,39.30
2023-04-10T03:27:10.106Z,39.00
2023-04-10T03:29:12.864Z,39.20
2023-04-10T03:31:15.672Z,39.16
2023-04-10T03:33:18.444Z,39.08
2023-04-10T03:35:21.101Z,38.73
2023-04-10T03:37:23.784Z,38.09
2023-04-10T03:39:26.444Z,37.70
2023-04-10T03:41:29.055Z,37.64
2023-04-10T03:43:31.693Z,37.05
2023-04-10T03:45:34.830Z,38.05
2023-04-10T03:47:37.556Z,37.35
2023-04-10T03:49:40.288Z,36.68
2023-04-10T03:51:43.014Z,36.76
2023-04-10T03:53:45.691Z,36.75
2023-04-10T03:55:48.348Z,35.97
2023-04-10T03:57:51.062Z,35.58
2023-04-10T03:59:53.666Z,35.44
2023-04-10T04:01:56.449Z,35.65
2023-04-10T04:03:59.694Z,35.27
2023-04-10T04:06:03.025Z,35.19
2023-04-10T04:08:07.076Z,34.95
2023-04-10T04:10:09.889Z,34.62
2023-04-10T04:12:12.879Z,34.65
2023-04-10T04:14:15.553Z,34.90
2023-04-10T04:16:18.406Z,34.13
2023-04-10T04:18:21.247Z,33.72
2023-04-10T04:20:23.930Z,33.77
2023-04-10T04:22:26.575Z,33.04
2023-04-10T04:24:29.231Z,32.75
2023-04-10T04:26:31.911Z,32.32
2023-04-10T04:28:34.506Z,31.78
2023-04-10T04:30:37.143Z,32.26
2023-04-10T04:32:39.975Z,31.88
2023-04-10T04:34:42.818Z,31.98
2023-04-10T04:36:45.569Z,31.70
2023-04-10T04:38:48.141Z,31.84
2023-04-10T04:40:50.864Z,31.69
2023-04-10T04:42:53.507Z,31.58
2023-04-10T04:44:56.135Z,31.52
2023-04-10T04:46:58.791Z,30.68
2023-04-10T04:49:01.438Z,30.50
2023-04-10T04:51:04.258Z,30.69
2023-04-10T04:53:08.007Z,30.67
2023-04-10T04:55:11.666Z,30.67
2023-04-10T04:57:15.490Z,30.93
2023-04-10T04:59:18.281Z,31.02
2023-04-10T05:01:21.038Z,31.05
2023-04-10T05:03:24.473Z,31.04
2023-04-10T05:05:27.613Z,31.36
2023-04-10T05:07:30.268Z,31.51
2023-04-10T05:09:33.248Z,30.98
2023-04-10T05:11:35.866Z,31.22
2023-04-10T05:13:38.477Z,30.85
2023-04-10T05:15:41.371Z,30.61
2023-04-10T05:17:44.205Z,30.42
2023-04-10T05:19:46.929Z,30.18
2023-04-10T05:21:49.652Z,29.71
2023-04-10T05:23:52.288Z,29.68
2023-04-10T05:25:54.938Z,29.74
2023-04-10T05:27:57.632Z,29.23
2023-04-10T05:30:00.367Z,29.06
2023-04-10T05:32:03.076Z,29.01
2023-04-10T05:34:05.957Z,28.75
2023-04-10T05:36:09.053Z,28.70
2023-04-10T05:38:11.812Z,28.59
2023-04-10T05:40:14.528Z,28.58
2023-04-10T05:42:17.176Z,28.91
2023-04-10T05:44:19.894Z,28.88
2023-04-10T05:46:22.626Z,28.76
2023-04-10T05:48:26.356Z,28.97
2023-04-10T05:50:30.477Z,28.83
2023-04-10T05:52:33.426Z,28.79
2023-04-10T05:54:36.423Z,28.45
2023-04-10T05:56:39.156Z,28.08
2023-04-10T05:58:42.008Z,27.80
2023-04-10T06:00:44.693Z,28.21
2023-04-10T06:02:47.503Z,27.38
2023-04-10T06:04:50.699Z,27.15
2023-04-10T06:06:54.116Z,26.86
2023-04-10T06:08:57.199Z,27.08
2023-04-10T06:10:59.850Z,27.25
2023-04-10T06:13:02.620Z,27.05
2023-04-10T06:15:05.737Z,27.30
2023-04-10T06:17:08.585Z,27.27
2023-04-10T06:19:11.485Z,27.61
2023-04-10T06:21:14.831Z,27.35
2023-04-10T06:23:17.439Z,27.20
2023-04-10T06:25:20.171Z,27.53
2023-04-10T06:27:22.927Z,27.19
2023-04-10T06:29:25.879Z,27.05
2023-04-10T06:31:28.607Z,27.19
2023-04-10T06:33:31.272Z,27.36
2023-04-10T06:35:34.989Z,27.84
2023-04-10T06:37:37.726Z,27.50
2023-04-10T06:39:40.523Z,27.10
2023-04-10T06:41:43.344Z,26.71
2023-04-10T06:43:46.507Z,26.62
2023-04-10T06:45:49.266Z,25.44
2023-04-10T06:47:52.281Z,25.61
2023-04-10T06:49:55.057Z,24.76
2023-04-10T06:51:57.654Z,25.71
2023-04-10T06:54:00.530Z,25.24
2023-04-10T06:56:03.755Z,25.45
2023-04-10T06:58:06.682Z,25.61
2023-04-10T07:00:10.159Z,25.11
2023-04-10T07:02:13.000Z,25.37
2023-04-10T07:04:15.813Z,24.83
2023-04-10T07:06:18.694Z,25.07
2023-04-10T07:08:21.287Z,24.26
2023-04-10T07:10:24.032Z,24.73
2023-04-10T07:12:27.086Z,24.28
2023-04-10T07:14:29.699Z,24.23
2023-04-10T07:16:32.962Z,23.94
2023-04-10T07:18:38.649Z,24.33
2023-04-10T07:20:41.224Z,24.33
2023-04-10T07:22:43.844Z,23.72
2023-04-10T07:24:46.621Z,23.85
2023-04-10T07:26:49.241Z,23.98
2023-04-10T07:28:52.065Z,24.19
2023-04-10T07:30:54.950Z,24.33
2023-04-10T07:32:57.959Z,23.64
2023-04-10T07:35:01.113Z,24.08
2023-04-10T07:37:04.137Z,23.26
2023-04-10T07:39:07.002Z,23.63
2023-04-10T07:41:12.318Z,23.96
2023-04-10T07:43:15.158Z,23.91
2023-04-10T07:45:17.865Z,23.53
2023-04-10T07:47:20.557Z,23.11
2023-04-10T07:49:23.417Z,22.84
2023-04-10T07:51:26.137Z,22.84
2023-04-10T07:53:28.913Z,22.94
2023-04-10T07:55:31.641Z,23.14
2023-04-10T07:57:34.308Z,22.78
2023-04-10T07:59:36.924Z,22.67
2023-04-10T08:01:40.989Z,22.48
2023-04-10T08:03:47.833Z,22.63
2023-04-10T08:05:51.010Z,22.50
2023-04-10T08:07:54.015Z,22.47
2023-04-10T08:09:56.607Z,22.36
2023-04-10T08:11:59.233Z,22.39
2023-04-10T08:14:03.137Z,22.08
2023-04-10T08:16:06.519Z,22.40
2023-04-10T08:18:09.188Z,21.91
2023-04-10T08:20:12.538Z,21.83
2023-04-10T08:22:15.287Z,21.93
2023-04-10T08:24:20.276Z,21.24
2023-04-10T08:26:23.544Z,21.68
2023-04-10T08:28:26.213Z,22.08
2023-04-10T08:30:28.872Z,22.07
2023-04-10T08:32:31.760Z,22.19
2023-04-10T08:34:34.526Z,21.52
2023-04-10T08:36:37.371Z,21.60
2023-04-10T08:38:40.169Z,21.36
2023-04-10T08:40:44.771Z,21.38
2023-04-10T08:42:47.653Z,21.07
2023-04-10T08:44:50.565Z,21.21
2023-04-10T08:46:53.728Z,20.52
2023-04-10T08:49:04.537Z,20.67
2023-04-10T08:51:18.681Z,20.80
2023-04-10T08:53:25.050Z,20.14
2023-04-10T08:55:27.900Z,20.32
2023-04-10T08:57:31.060Z,19.94
2023-04-10T08:59:33.904Z,19.95
2023-04-10T09:01:36.914Z,20.09
2023-04-10T09:03:39.919Z,20.43
2023-04-10T09:05:43.037Z,20.28
2023-04-10T09:07:45.694Z,19.53
2023-04-10T09:09:48.359Z,19.54
2023-04-10T09:11:56.498Z,20.52
2023-04-10T09:13:59.190Z,20.34
2023-04-10T09:16:02.127Z,20.33
2023-04-10T09:18:04.860Z,20.02
2023-04-10T09:20:22.204Z,19.75
2023-04-10T09:22:35.635Z,19.04
2023-04-10T09:24:43.176Z,19.68
2023-04-10T09:26:45.820Z,19.78
2023-04-10T09:28:58.574Z,19.62
2023-04-10T09:31:01.190Z,19.44
2023-04-10T09:33:04.374Z,19.33
2023-04-10T09:35:08.782Z,18.69
2023-04-10T09:37:11.392Z,18.74
2023-04-10T09:39:14.175Z,18.76
2023-04-10T09:41:16.902Z,18.91
2023-04-10T09:43:25.938Z,18.68
2023-04-10T09:45:47.698Z,18.30
2023-04-10T09:48:07.312Z,18.46
2023-04-10T09:50:10.067Z,18.73
2023-04-10T09:52:27.395Z,18.88
2023-04-10T09:54:38.839Z,19.10
2023-04-10T09:56:44.103Z,18.67
2023-04-10T09:58:47.047Z,18.35
2023-04-10T10:00:50.060Z,18.39
2023-04-10T10:02:55.271Z,18.24
2023-04-10T10:05:02.451Z,18.22
2023-04-10T10:07:06.066Z,18.14
2023-04-10T10:09:09.384Z,18.36
2023-04-10T10:11:18.243Z,18.28
2023-04-10T10:13:44.758Z,18.31
2023-04-10T10:16:10.358Z,18.30
2023-04-10T10:18:43.576Z,18.01
2023-04-10T10:20:47.419Z,17.80
2023-04-10T10:22:50.830Z,17.81
2023-04-10T10:24:56.843Z,17.89
2023-04-10T10:27:01.994Z,17.87
2023-04-10T10:29:07.033Z,18.39
2023-04-10T10:31:11.319Z,18.19
2023-04-10T10:33:14.922Z,17.89
2023-04-10T10:35:18.569Z,18.09
2023-04-10T10:37:24.029Z,18.15
2023-04-10T10:40:02.180Z,17.96
2023-04-10T10:42:23.150Z,17.51
2023-04-10T10:45:05.217Z,17.68
2023-04-10T10:47:18.033Z,17.60
2023-04-10T10:49:20.782Z,17.76
2023-04-10T10:51:23.529Z,17.79
2023-04-10T10:53:44.502Z,17.45
2023-04-10T10:55:47.180Z,17.61
2023-04-10T10:57:54.016Z,17.85
2023-04-10T10:59:56.987Z,17.56
2023-04-10T11:02:16.993Z,17.77
2023-04-10T11:04:46.915Z,17.57
2023-04-10T11:06:52.316Z,17.06
2023-04-10T11:08:55.167Z,16.93
2023-04-10T11:11:10.068Z,17.01
2023-04-10T11:13:18.661Z,16.87
2023-04-10T11:15:25.575Z,17.02
2023-04-10T11:17:51.500Z,16.63
2023-04-10T11:20:01.100Z,16.97
2023-04-10T11:22:07.703Z,16.31
2023-04-10T11:24:10.437Z,16.49
2023-04-10T11:26:13.181Z,16.07
2023-04-10T11:28:35.478Z,16.15
2023-04-10T11:30:38.411Z,16.33
2023-04-10T11:32:42.640Z,15.94
2023-04-10T11:34:46.082Z,15.72
2023-04-10T11:36:48.826Z,15.81
2023-04-10T11:38:56.303Z,16.01
2023-04-10T11:41:06.961Z,16.04
2023-04-10T11:43:14.386Z,16.03
2023-04-10T11:45:28.100Z,15.99
2023-04-10T11:47:31.169Z,15.78
2023-04-10T11:49:35.119Z,15.84
2023-04-10T11:51:39.141Z,15.79
2023-04-10T11:53:42.901Z,16.08
2023-04-10T11:55:46.896Z,15.78
2023-04-10T11:57:49.580Z,15.94
2023-04-10T11:59:52.391Z,15.79
2023-04-10T12:02:11.200Z,16.15
2023-04-10T12:04:17.105Z,16.04
2023-04-10T12:06:20.720Z,15.82
2023-04-10T12:08:34.943Z,15.93
2023-04-10T12:10:47.617Z,15.99
2023-04-10T12:12:50.360Z,16.13
2023-04-10T12:14:53.105Z,15.84
2023-04-10T12:16:57.067Z,15.81
2023-04-10T12:18:59.928Z,15.61
2023-04-10T12:21:05.028Z,15.53
2023-04-10T12:23:08.628Z,15.59
2023-04-10T12:25:12.989Z,15.82
2023-04-10T12:27:29.118Z,15.75
2023-04-10T12:29:32.011Z,15.72
2023-04-10T12:31:36.652Z,15.73
2023-04-10T12:33:39.778Z,15.38
2023-04-10T12:35:45.118Z,15.31
2023-04-10T12:37:52.505Z,15.36
2023-04-10T12:40:06.868Z,15.64
2023-04-10T12:42:13.607Z,15.58
2023-04-10T12:44:24.168Z,15.42
2023-04-10T12:46:34.678Z,15.00
2023-04-10T12:48:37.430Z,15.22
2023-04-10T12:50:48.123Z,15.11
2023-04-10T12:53:11.573Z,15.11
2023-04-10T12:55:15.987Z,14.53
2023-04-10T12:57:27.836Z,14.50
2023-04-10T12:59:31.852Z,14.63
2023-04-10T13:01:34.658Z,14.50
2023-04-10T13:03:38.686Z,14.58
2023-04-10T13:05:41.638Z,14.80
2023-04-10T13:07:44.307Z,14.68
2023-04-10T13:09:47.143Z,14.55
2023-04-10T13:11:52.213Z,15.09
2023-04-10T13:13:55.098Z,15.52
2023-04-10T13:15:57.778Z,15.33
2023-04-10T13:18:01.656Z,15.57
2023-04-10T13:20:06.694Z,15.78
2023-04-10T13:22:09.303Z,15.71
2023-04-10T13:24:12.277Z,15.60
2023-04-10T13:26:15.698Z,15.67
2023-04-10T13:28:19.131Z,15.48
2023-04-10T13:30:21.778Z,15.29
2023-04-10T13:32:24.532Z,15.41
2023-04-10T13:34:28.150Z,15.22
2023-04-10T13:36:32.067Z,15.26
2023-04-10T13:38:34.710Z,14.94
2023-04-10T13:40:37.614Z,14.98
2023-04-10T13:42:42.395Z,15.00
2023-04-10T13:44:45.730Z,15.01
2023-04-10T13:46:48.477Z,15.19
2023-04-10T13:48:51.292Z,15.24
2023-04-10T13:50:53.861Z,15.31
2023-04-10T13:52:56.517Z,15.13
2023-04-10T13:54:59.285Z,15.25
2023-04-10T13:57:03.000Z,15.23
2023-04-10T13:59:05.769Z,15.41
2023-04-10T14:01:08.509Z,15.53
2023-04-10T14:03:12.632Z,15.74
2023-04-10T14:05:15.384Z,15.92
2023-04-10T14:07:20.200Z,15.95
2023-04-10T14:09:22.889Z,15.98
2023-04-10T14:11:26.482Z,15.80
2023-04-10T14:13:30.591Z,16.15
2023-04-10T14:15:33.873Z,16.30
2023-04-10T14:17:36.600Z,16.35
2023-04-10T14:19:39.934Z,16.63
2023-04-10T14:21:44.636Z,16.51
2023-04-10T14:23:48.126Z,16.24
2023-04-10T14:25:51.246Z,16.62
2023-04-10T14:27:53.915Z,16.74
2023-04-10T14:29:56.566Z,16.81
2023-04-10T14:31:59.320Z,16.96
2023-04-10T14:34:02.361Z,17.03
2023-04-10T14:36:05.574Z,17.31
2023-04-10T14:38:08.287Z,17.44
2023-04-10T14:40:11.302Z,17.25
2023-04-10T14:42:14.044Z,17.58
2023-04-10T14:44:17.097Z,17.81
2023-04-10T14:46:19.990Z,17.88
2023-04-10T14:48:23.300Z,17.84
2023-04-10T14:50:26.164Z,17.96
2023-04-10T14:52:28.840Z,18.11
2023-04-10T14:54:31.444Z,18.55
2023-04-10T14:56:34.188Z,18.70
2023-04-10T14:58:36.878Z,18.75
2023-04-10T15:00:39.896Z,18.95
2023-04-10T15:02:42.784Z,18.90
2023-04-10T15:04:45.567Z,18.80
2023-04-10T15:06:48.320Z,18.68
2023-04-10T15:08:50.934Z,18.70
2023-04-10T15:10:53.736Z,19.04
2023-04-10T15:12:56.567Z,19.22
2023-04-10T15:14:59.152Z,19.78
2023-04-10T15:17:01.978Z,20.14
2023-04-10T15:19:04.824Z,20.68
2023-04-10T15:21:07.782Z,21.10
2023-04-10T15:23:11.401Z,21.23
2023-04-10T15:25:14.099Z,22.00
2023-04-10T15:27:16.938Z,22.22
2023-04-10T15:29:19.681Z,22.49
2023-04-10T15:31:24.046Z,22.75
2023-04-10T15:33:26.919Z,23.23
2023-04-10T15:35:30.724Z,23.39
2023-04-10T15:37:36.841Z,23.66
2023-04-10T15:39:39.477Z,23.77
2023-04-10T15:41:42.128Z,23.61
2023-04-10T15:43:44.976Z,23.77
2023-04-10T15:45:47.632Z,24.24
2023-04-10T15:47:50.968Z,24.31
2023-04-10T15:49:53.675Z,24.57
2023-04-10T15:51:56.336Z,24.92
2023-04-10T15:53:59.039Z,24.80
2023-04-10T15:56:05.662Z,25.02
2023-04-10T15:58:08.347Z,25.38
2023-04-10T16:00:12.014Z,25.06
2023-04-10T16:02:14.884Z,25.20
2023-04-10T16:04:17.651Z,25.69
2023-04-10T16:06:20.303Z,25.83
2023-04-10T16:08:24.947Z,25.97
2023-04-10T16:10:27.639Z,26.15
2023-04-10T16:12:30.458Z,26.14
2023-04-10T16:14:33.215Z,26.04
2023-04-10T16:16:35.922Z,26.21
2023-04-10T16:18:38.538Z,26.44
2023-04-10T16:20:42.329Z,26.30
2023-04-10T16:22:45.128Z,26.74
2023-04-10T16:24:47.750Z,26.30
2023-04-10T16:26:50.622Z,26.60
2023-04-10T16:28:53.770Z,26.53
2023-04-10T16:30:57.494Z,26.93
2023-04-10T16:33:00.256Z,27.22
2023-04-10T16:35:02.947Z,27.13
2023-04-10T16:37:05.804Z,27.13
2023-04-10T16:39:08.874Z,27.49
2023-04-10T16:41:12.721Z,27.67
2023-04-10T16:43:15.496Z,27.91
2023-04-10T16:45:18.172Z,28.06
2023-04-10T16:47:21.041Z,28.49
2023-04-10T16:49:24.720Z,29.05
2023-04-10T16:51:27.609Z,29.39
2023-04-10T16:53:30.482Z,29.35
2023-04-10T16:55:33.122Z,29.50
2023-04-10T16:57:35.917Z,29.42
2023-04-10T16:59:38.573Z,29.93
2023-04-10T17:01:41.163Z,29.88
2023-04-10T17:03:44.868Z,30.12
2023-04-10T17:05:47.636Z,30.25
2023-04-10T17:07:50.417Z,30.25
2023-04-10T17:09:53.152Z,30.16
2023-04-10T17:11:56.051Z,30.30
2023-04-10T17:13:58.905Z,30.78
2023-04-10T17:16:01.805Z,30.84
2023-04-10T17:18:04.650Z,30.86
2023-04-10T17:20:09.875Z,31.11
2023-04-10T17:22:20.782Z,31.24
2023-04-10T17:24:23.547Z,31.03
2023-04-10T17:26:26.313Z,31.35
2023-04-10T17:28:28.998Z,31.69
2023-04-10T17:30:31.754Z,31.70
2023-04-10T17:32:34.622Z,32.25
2023-04-10T17:34:38.623Z,32.19
2023-04-10T17:36:42.421Z,32.17
2023-04-10T17:38:45.093Z,32.89
2023-04-10T17:40:47.835Z,32.83
2023-04-10T17:42:50.458Z,32.76
2023-04-10T17:44:53.259Z,33.32
2023-04-10T17:46:56.028Z,33.25
2023-04-10T17:49:01.766Z,33.14
2023-04-10T17:51:06.964Z,33.57
2023-04-10T17:53:09.944Z,33.29
2023-04-10T17:55:12.641Z,34.00
2023-04-10T17:57:15.569Z,34.10
2023-04-10T17:59:18.238Z,33.95
2023-04-10T18:01:25.956Z,34.48
2023-04-10T18:03:28.850Z,34.90
2023-04-10T18:05:31.710Z,34.69
2023-04-10T18:07:34.507Z,34.95
2023-04-10T18:09:37.993Z,35.25
2023-04-10T18:11:40.882Z,35.41
2023-04-10T18:13:43.715Z,35.71
2023-04-10T18:15:46.466Z,35.84
2023-04-10T18:17:49.726Z,36.24
2023-04-10T18:19:52.814Z,36.55
2023-04-10T18:21:55.526Z,36.38
2023-04-10T18:23:58.240Z,36.48
2023-04-10T18:26:01.036Z,36.64
2023-04-10T18:28:14.547Z,37.27
2023-04-10T18:30:19.032Z,37.19
2023-04-10T18:32:21.788Z,37.38
2023-04-10T18:34:24.632Z,37.26
2023-04-10T18:36:27.858Z,37.20
2023-04-10T18:38:30.580Z,37.47
2023-04-10T18:40:34.832Z,37.54
2023-04-10T18:42:37.480Z,37.29
2023-04-10T18:44:40.149Z,37.82
2023-04-10T18:46:48.466Z,37.62
2023-04-10T18:48:56.294Z,37.91
2023-04-10T18:50:59.244Z,37.93
2023-04-10T18:53:01.976Z,38.25
2023-04-10T18:55:04.953Z,38.15
2023-04-10T18:57:07.759Z,38.38
2023-04-10T18:59:10.519Z,38.53
2023-04-10T19:01:13.254Z,38.87
2023-04-10T19:03:16.192Z,38.95
2023-04-10T19:05:19.131Z,39.28
2023-04-10T19:07:21.761Z,39.41
2023-04-10T19:09:24.682Z,39.29
2023-04-10T19:11:27.447Z,39.84
2023-04-10T19:13:30.091Z,40.17
2023-04-10T19:15:32.816Z,40.50
2023-04-10T19:17:35.635Z,40.28
2023-04-10T19:19:38.310Z,40.53
2023-04-10T19:21:41.088Z,40.42
2023-04-10T19:23:43.876Z,40.77
2023-04-10T19:25:46.744Z,40.87
2023-04-10T19:27:49.484Z,40.67
2023-04-10T19:29:53.116Z,41.62
2023-04-10T19:31:56.200Z,41.34
2023-04-10T19:33:58.945Z,41.76
2023-04-10T19:36:01.743Z,41.56
2023-04-10T19:38:04.476Z,41.58
2023-04-10T19:40:07.701Z,41.83
2023-04-10T19:42:10.879Z,41.66
2023-04-10T19:44:14.032Z,41.30
2023-04-10T19:46:18.039Z,41.12
2023-04-10T19:48:20.911Z,41.38
2023-04-10T19:50:23.615Z,41.76
2023-04-10T19:52:26.489Z,41.28
2023-04-10T19:54:30.058Z,41.69
2023-04-10T19:56:34.998Z,41.46
2023-04-10T19:58:41.121Z,41.57
2023-04-10T20:00:44.591Z,41.59
2023-04-10T20:02:47.861Z,41.83
2023-04-10T20:04:50.884Z,42.00
2023-04-10T20:06:53.706Z,41.69
2023-04-10T20:08:56.638Z,41.83
2023-04-10T20:10:59.705Z,41.87
2023-04-10T20:13:02.437Z,41.94
2023-04-10T20:15:05.777Z,41.65
2023-04-10T20:17:08.563Z,42.21
2023-04-10T20:19:11.213Z,42.22
2023-04-10T20:21:14.044Z,42.28
2023-04-10T20:23:16.764Z,42.41
2023-04-10T20:25:19.403Z,42.67
2023-04-10T20:27:22.037Z,42.16
2023-04-10T20:29:24.712Z,42.43
2023-04-10T20:31:27.618Z,42.05
2023-04-10T20:33:30.450Z,42.26
2023-04-10T20:35:33.229Z,42.76
2023-04-10T20:37:35.896Z,42.71
2023-04-10T20:39:38.525Z,42.44
2023-04-10T20:41:41.274Z,42.84
2023-04-10T20:43:43.986Z,43.04
2023-04-10T20:45:46.622Z,42.66
2023-04-10T20:47:49.439Z,43.25
2023-04-10T20:49:52.121Z,42.71
2023-04-10T20:51:54.942Z,42.75
2023-04-10T20:53:59.075Z,42.91
2023-04-10T20:56:03.039Z,43.31
2023-04-10T20:58:07.468Z,43.38
2023-04-10T21:00:10.928Z,43.40
2023-04-10T21:02:13.805Z,43.59
2023-04-10T21:04:16.550Z,43.10
2023-04-10T21:06:19.353Z,43.60
2023-04-10T21:08:22.260Z,43.77
2023-04-10T21:10:25.216Z,43.74
2023-04-10T21:12:27.850Z,43.71
2023-04-10T21:14:30.628Z,43.37
2023-04-10T21:16:34.988Z,43.95
2023-04-10T21:18:37.714Z,43.99
2023-04-10T21:20:40.486Z,43.78
2023-04-10T21:22:43.204Z,44.37
2023-04-10T21:24:45.941Z,44.43
2023-04-10T21:26:48.720Z,44.32
2023-04-10T21:28:51.312Z,45.13
2023-04-10T21:30:54.248Z,44.84
2023-04-10T21:32:56.995Z,44.62
2023-04-10T21:34:59.900Z,45.17
2023-04-10T21:37:02.605Z,44.95
2023-04-10T21:39:09.338Z,45.36
2023-04-10T21:41:12.158Z,45.88
2023-04-10T21:43:14.840Z,44.90
2023-04-10T21:45:17.587Z,45.65
2023-04-10T21:47:20.516Z,45.64
2023-04-10T21:49:23.071Z,45.25
2023-04-10T21:51:26.928Z,45.78
2023-04-10T21:53:29.743Z,46.53
2023-04-10T21:55:32.515Z,46.53
2023-04-10T21:57:35.321Z,46.10
2023-04-10T21:59:38.222Z,46.46
2023-04-10T22:01:41.981Z,46.45
2023-04-10T22:03:45.132Z,46.08
2023-04-10T22:05:49.097Z,47.02
2023-04-10T22:07:52.494Z,46.22
2023-04-10T22:09:55.182Z,46.86
2023-04-10T22:11:57.873Z,47.36
2023-04-10T22:14:09.341Z,46.66
2023-04-10T22:16:18.020Z,46.84
2023-04-10T22:18:20.736Z,46.96
2023-04-10T22:20:23.468Z,46.75
2023-04-10T22:22:26.337Z,46.18
2023-04-10T22:24:29.315Z,46.51
2023-04-10T22:26:33.090Z,46.74
2023-04-10T22:28:35.871Z,46.67
2023-04-10T22:30:38.572Z,47.01
2023-04-10T22:32:41.863Z,46.99
2023-04-10T22:34:46.129Z,46.63
2023-04-10T22:36:50.968Z,47.19
2023-04-10T22:38:54.828Z,46.79
2023-04-10T22:40:57.633Z,46.84
2023-04-10T22:43:00.381Z,47.42
2023-04-10T22:45:03.321Z,46.89
2023-04-10T22:47:08.338Z,47.27
2023-04-10T22:49:11.014Z,46.83
2023-04-10T22:51:14.300Z,47.50
2023-04-10T22:53:16.993Z,47.49
2023-04-10T22:55:19.803Z,47.53
2023-04-10T22:57:22.414Z,47.14
2023-04-10T22:59:25.208Z,47.28
2023-04-10T23:01:28.292Z,46.91
2023-04-10T23:03:30.997Z,47.36
2023-04-10T23:05:33.848Z,47.43
2023-04-10T23:07:36.544Z,47.01
2023-04-10T23:09:39.312Z,47.49
2023-04-10T23:11:42.017Z,47.76
2023-04-10T23:13:44.789Z,47.63
2023-04-10T23:15:51.483Z,48.36
2023-04-10T23:17:54.276Z,48.16
2023-04-10T23:19:57.071Z,48.37
2023-04-10T23:21:59.774Z,48.38
2023-04-10T23:24:02.703Z,48.24
2023-04-10T23:26:05.739Z,48.57
2023-04-10T23:28:08.706Z,48.36
2023-04-10T23:30:11.728Z,48.18
2023-04-10T23:32:15.612Z,48.42
2023-04-10T23:34:19.116Z,48.70
2023-04-10T23:36:21.815Z,48.78
2023-04-10T23:38:24.571Z,48.93
2023-04-10T23:40:27.249Z,48.62
2023-04-10T23:42:29.915Z,49.47
2023-04-10T23:44:32.615Z,49.41
2023-04-10T23:46:35.614Z,49.22
2023-04-10T23:48:38.448Z,49.04
2023-04-10T23:50:41.188Z,49.22
2023-04-10T23:52:49.499Z,49.24
2023-04-10T23:54:52.205Z,49.37
2023-04-10T23:56:54.962Z,49.38
2023-04-10T23:58:57.910Z,49.36
